Time;durP1;ratioP1;P1;durP2;ratioP2;P2;SDS_P1;SDS_P2;PMS_P1;PMS_P2;Temp;Humidity;BMP_temperature;BMP_pressure;BME280_temperature;BME280_humidity;BME280_pressure;Samples;Min_cycle;Max_cycle;Signal;HPM_P1;HPM_P2
2022/12/03 00:02:01;;;;;;;8.70;6.43;;;3.30;99.90;;;;;;5053017;28;20167;-77
2022/12/03 00:04:27;;;;;;;12.50;7.27;;;3.20;99.90;;;;;;5057210;28;20185;-76
2022/12/03 00:06:52;;;;;;;15.57;7.93;;;3.20;99.90;;;;;;5052561;28;20233;-77
2022/12/03 00:09:18;;;;;;;10.13;5.97;;;3.20;99.90;;;;;;5061180;28;20167;-77
2022/12/03 00:11:44;;;;;;;12.43;7.43;;;3.20;99.90;;;;;;5034166;28;20641;-77
2022/12/03 00:14:09;;;;;;;9.77;6.37;;;3.10;99.90;;;;;;5033485;28;20214;-76
2022/12/03 00:16:35;;;;;;;12.50;6.97;;;3.10;99.90;;;;;;5042108;28;20250;-77
2022/12/03 00:19:00;;;;;;;11.60;7.50;;;3.00;99.90;;;;;;5053548;28;20182;-77
2022/12/03 00:21:26;;;;;;;10.43;6.50;;;3.00;99.90;;;;;;5053721;28;20171;-76
2022/12/03 00:23:51;;;;;;;9.30;5.80;;;2.90;99.90;;;;;;5053631;28;20198;-77
2022/12/03 00:26:17;;;;;;;12.53;6.57;;;2.90;99.90;;;;;;5049981;28;20187;-77
2022/12/03 00:28:42;;;;;;;7.53;4.73;;;2.90;99.90;;;;;;5033325;28;20606;-77
2022/12/03 00:31:08;;;;;;;7.73;6.43;;;2.90;99.90;;;;;;5042990;28;20187;-77
2022/12/03 00:33:34;;;;;;;10.67;5.87;;;2.90;99.90;;;;;;5042790;28;20575;-78
2022/12/03 00:35:59;;;;;;;12.97;6.50;;;2.90;99.90;;;;;;5041898;28;20194;-77
2022/12/03 00:38:24;;;;;;;11.33;6.90;;;2.90;99.90;;;;;;5042141;28;20159;-77
2022/12/03 00:40:50;;;;;;;9.40;6.10;;;2.90;99.90;;;;;;5040233;28;20172;-77
2022/12/03 00:43:15;;;;;;;10.90;6.63;;;2.90;99.90;;;;;;5041745;28;20203;-77
2022/12/03 00:45:41;;;;;;;9.23;6.03;;;2.80;99.90;;;;;;5041659;28;20213;-77
2022/12/03 00:48:06;;;;;;;8.23;6.93;;;2.90;99.90;;;;;;5041660;28;20225;-78
2022/12/03 00:50:32;;;;;;;10.53;6.00;;;2.90;99.90;;;;;;5041260;28;20175;-77
2022/12/03 00:52:58;;;;;;;9.20;6.20;;;3.00;99.90;;;;;;5049284;28;20203;-77
2022/12/03 00:55:23;;;;;;;11.60;6.80;;;3.00;99.90;;;;;;5061018;28;20170;-78
2022/12/03 00:57:49;;;;;;;10.63;6.80;;;3.10;99.90;;;;;;5061047;28;20175;-77
2022/12/03 01:00:14;;;;;;;8.83;5.60;;;3.10;99.90;;;;;;5074722;28;20197;-77
2022/12/03 01:02:40;;;;;;;10.17;5.30;;;3.20;99.90;;;;;;5061373;28;20191;-77
2022/12/03 01:05:06;;;;;;;9.53;6.10;;;3.30;99.90;;;;;;5061033;28;20402;-77
2022/12/03 01:07:31;;;;;;;9.90;6.50;;;3.30;99.90;;;;;;5060916;28;20540;-77
2022/12/03 01:09:57;;;;;;;11.00;6.00;;;3.40;99.90;;;;;;5061692;28;20178;-77
2022/12/03 01:12:22;;;;;;;6.63;5.10;;;3.40;99.90;;;;;;5061198;28;20696;-78
2022/12/03 01:14:48;;;;;;;11.17;6.60;;;3.40;99.90;;;;;;5060438;28;20171;-77
2022/12/03 01:17:14;;;;;;;12.77;5.90;;;3.50;99.90;;;;;;5060209;28;20182;-77
2022/12/03 01:19:40;;;;;;;9.13;6.83;;;3.50;99.90;;;;;;5061331;28;20175;-77
2022/12/03 01:22:06;;;;;;;10.40;6.93;;;3.50;99.90;;;;;;5060483;28;20262;-77
2022/12/03 01:24:32;;;;;;;11.13;6.40;;;3.50;99.90;;;;;;5059936;28;20424;-77
2022/12/03 01:26:57;;;;;;;8.83;6.20;;;3.60;99.90;;;;;;5059478;28;20785;-77
2022/12/03 01:29:23;;;;;;;11.10;7.27;;;3.60;99.90;;;;;;5061417;28;20708;-77
2022/12/03 01:34:32;;;;;;;9.30;6.30;;;3.60;99.90;;;;;;5051861;28;20173;-75
2022/12/03 01:36:58;;;;;;;10.37;5.97;;;3.70;99.90;;;;;;5052339;28;20839;-77
2022/12/03 01:39:23;;;;;;;10.67;6.07;;;3.70;99.90;;;;;;5051523;28;20166;-75
2022/12/03 01:41:51;;;;;;;10.07;6.17;;;3.70;99.90;;;;;;5051862;28;20170;-75
2022/12/03 01:44:25;;;;;;;9.13;6.20;;;3.70;99.90;;;;;;5051605;28;20245;-75
2022/12/03 01:46:52;;;;;;;12.73;6.17;;;3.70;99.90;;;;;;5051886;28;20444;-75
2022/12/03 01:49:28;;;;;;;10.63;5.23;;;3.70;99.90;;;;;;5051799;28;20437;-75
2022/12/03 01:51:55;;;;;;;10.17;6.70;;;3.60;99.90;;;;;;5051785;28;20500;-75
2022/12/03 01:54:25;;;;;;;10.93;6.47;;;3.60;99.90;;;;;;5051310;28;20575;-76
2022/12/03 01:56:52;;;;;;;11.90;6.73;;;3.60;99.90;;;;;;5052007;28;20402;-75
2022/12/03 01:59:21;;;;;;;15.53;6.60;;;3.60;99.90;;;;;;5046470;28;20454;-75
2022/12/03 02:01:47;;;;;;;10.67;6.10;;;3.60;99.90;;;;;;5051837;28;20406;-76
2022/12/03 02:04:15;;;;;;;8.00;5.70;;;3.60;99.90;;;;;;5050740;28;20433;-76
2022/12/03 02:06:42;;;;;;;10.70;7.03;;;3.60;99.90;;;;;;5050631;28;20647;-77
2022/12/03 02:09:12;;;;;;;9.70;5.07;;;3.60;99.90;;;;;;5052301;28;20397;-75
2022/12/03 02:11:45;;;;;;;7.53;5.50;;;3.70;99.90;;;;;;5051636;28;20448;-75
2022/12/03 02:14:15;;;;;;;10.23;6.43;;;3.70;99.90;;;;;;5051394;28;20489;-75
2022/12/03 02:16:41;;;;;;;12.70;6.90;;;3.70;99.90;;;;;;5051628;28;20439;-75
2022/12/03 02:19:21;;;;;;;9.13;5.20;;;3.70;99.90;;;;;;5050271;28;20560;-75
2022/12/03 02:22:16;;;;;;;8.87;6.10;;;3.70;99.90;;;;;;5051792;28;20405;-75
2022/12/03 02:25:18;;;;;;;9.40;5.77;;;3.80;99.90;;;;;;5051819;28;20410;-77
2022/12/03 02:27:44;;;;;;;8.73;5.63;;;3.70;99.90;;;;;;5060715;28;20397;-77
2022/12/03 02:30:13;;;;;;;9.00;5.07;;;3.70;99.90;;;;;;5060333;28;20412;-77
2022/12/03 02:32:39;;;;;;;7.47;5.73;;;3.80;99.90;;;;;;5059581;28;20993;-77
2022/12/03 02:35:05;;;;;;;14.63;7.00;;;3.80;99.90;;;;;;5058619;28;20418;-77
2022/12/03 02:37:36;;;;;;;10.10;6.47;;;3.80;99.90;;;;;;5058587;28;20202;-77
2022/12/03 02:40:05;;;;;;;7.03;4.80;;;3.90;99.90;;;;;;5060478;28;20560;-77
2022/12/03 02:42:34;;;;;;;7.10;4.83;;;3.90;99.90;;;;;;5058965;28;20441;-77
2022/12/03 02:45:09;;;;;;;11.70;6.80;;;3.90;99.90;;;;;;5059240;28;20416;-77
2022/12/03 02:47:43;;;;;;;8.57;5.47;;;3.90;99.90;;;;;;5058963;28;20420;-77
2022/12/03 02:50:12;;;;;;;8.87;5.40;;;3.90;99.90;;;;;;5053665;28;20836;-76
2022/12/03 02:52:38;;;;;;;8.80;5.57;;;3.90;99.90;;;;;;5051929;28;20452;-77
2022/12/03 02:55:05;;;;;;;7.07;5.30;;;3.90;99.90;;;;;;5054577;28;20496;-76
2022/12/03 02:57:32;;;;;;;10.67;5.87;;;3.90;99.90;;;;;;5054884;28;20506;-77
2022/12/03 02:59:58;;;;;;;10.03;5.30;;;3.90;99.90;;;;;;5053483;28;20457;-76
2022/12/03 03:02:23;;;;;;;8.90;6.00;;;4.00;99.90;;;;;;5054692;28;20507;-75
2022/12/03 03:04:49;;;;;;;9.53;5.33;;;4.00;99.90;;;;;;5054411;28;20575;-75
2022/12/03 03:07:15;;;;;;;8.87;5.17;;;4.00;99.90;;;;;;5054610;28;20664;-75
2022/12/03 03:09:41;;;;;;;6.93;5.47;;;4.10;99.90;;;;;;5054552;28;20170;-75
2022/12/03 03:12:06;;;;;;;9.17;5.17;;;4.10;99.90;;;;;;5054407;28;20467;-75
2022/12/03 03:14:32;;;;;;;6.47;4.90;;;4.10;99.90;;;;;;5054342;28;20213;-75
2022/12/03 03:16:58;;;;;;;10.43;5.97;;;4.10;99.90;;;;;;5054490;28;20175;-76
2022/12/03 03:19:28;;;;;;;8.83;4.60;;;4.10;99.90;;;;;;5054382;28;20168;-75
2022/12/03 03:21:53;;;;;;;5.80;4.23;;;4.20;99.90;;;;;;5054862;28;20224;-77
2022/12/03 03:24:20;;;;;;;6.33;4.37;;;4.20;99.90;;;;;;5054485;28;20421;-76
2022/12/03 03:26:47;;;;;;;7.57;4.77;;;4.20;99.90;;;;;;5061624;28;20642;-77
2022/12/03 03:29:13;;;;;;;8.57;5.07;;;4.20;99.90;;;;;;5061002;28;20417;-77
2022/12/03 03:31:40;;;;;;;6.27;5.07;;;4.20;99.90;;;;;;5055183;28;20457;-77
2022/12/03 03:34:06;;;;;;;6.97;4.37;;;4.20;99.90;;;;;;5061601;28;20205;-77
2022/12/03 03:36:31;;;;;;;8.97;4.87;;;4.20;99.90;;;;;;5059939;28;20409;-77
2022/12/03 03:38:57;;;;;;;22.20;15.00;;;4.20;99.90;;;;;;5061721;28;20409;-77
2022/12/03 03:41:26;;;;;;;10.70;6.83;;;4.20;99.90;;;;;;5058979;28;20171;-76
2022/12/03 03:43:52;;;;;;;9.50;6.17;;;4.20;99.90;;;;;;5053869;28;20187;-77
2022/12/03 03:46:18;;;;;;;8.47;5.23;;;4.20;99.90;;;;;;5053945;28;20424;-77
2022/12/03 03:48:45;;;;;;;7.57;5.37;;;4.20;99.90;;;;;;5054362;28;20840;-77
2022/12/03 03:51:11;;;;;;;42.93;22.77;;;4.20;99.90;;;;;;5053825;28;20508;-77
2022/12/03 03:53:43;;;;;;;26.60;14.47;;;4.20;99.90;;;;;;5053663;28;20464;-77
2022/12/03 03:56:09;;;;;;;28.13;17.60;;;4.20;99.90;;;;;;5053423;28;20413;-76
2022/12/03 03:58:36;;;;;;;8.10;5.80;;;4.20;99.90;;;;;;5053726;28;20440;-77
2022/12/03 04:01:01;;;;;;;7.00;4.10;;;4.20;99.90;;;;;;5053647;28;20397;-76
2022/12/03 04:03:28;;;;;;;7.13;5.10;;;4.20;99.90;;;;;;5053417;28;20436;-76
2022/12/03 04:05:54;;;;;;;6.70;3.97;;;4.10;99.90;;;;;;5053280;28;20175;-76
2022/12/03 04:08:19;;;;;;;9.50;5.27;;;4.10;99.90;;;;;;5053519;28;20420;-76
2022/12/03 04:13:29;;;;;;;11.20;5.20;;;4.10;99.90;;;;;;5062022;28;20244;-78
2022/12/03 04:15:54;;;;;;;8.93;5.23;;;4.10;99.90;;;;;;5059092;28;20425;-77
2022/12/03 04:23:48;;;;;;;8.83;5.70;;;4.00;99.90;;;;;;5053792;28;20424;-76
2022/12/03 04:28:57;;;;;;;14.40;6.40;;;4.00;99.90;;;;;;5056658;28;20185;-78
2022/12/03 04:36:52;;;;;;;10.53;4.60;;;3.90;99.90;;;;;;5053349;28;20902;-75
2022/12/03 04:39:18;;;;;;;10.20;6.43;;;3.90;99.90;;;;;;5053795;28;20413;-77
2022/12/03 04:41:43;;;;;;;8.57;5.50;;;3.90;99.90;;;;;;5053775;28;20174;-76
2022/12/03 04:46:53;;;;;;;16.33;9.30;;;3.80;99.90;;;;;;5052857;28;20198;-75
2022/12/03 04:49:19;;;;;;;8.43;5.87;;;3.80;99.90;;;;;;5052681;28;20402;-75
2022/12/03 04:51:44;;;;;;;8.80;5.47;;;3.80;99.90;;;;;;5052657;28;20199;-75
2022/12/03 04:54:10;;;;;;;7.90;5.07;;;3.80;99.90;;;;;;5053142;28;20210;-75
2022/12/03 04:56:35;;;;;;;12.93;6.00;;;3.80;99.90;;;;;;5052893;28;20163;-77
2022/12/03 04:59:01;;;;;;;6.50;5.07;;;3.70;99.90;;;;;;5053302;28;20163;-77
2022/12/03 05:01:26;;;;;;;13.53;6.20;;;3.70;99.90;;;;;;5053159;28;20186;-77
2022/12/03 05:03:52;;;;;;;10.90;5.83;;;3.70;99.90;;;;;;5052966;28;20195;-77
2022/12/03 05:06:17;;;;;;;9.40;5.17;;;3.70;99.90;;;;;;5052132;28;20171;-76
2022/12/03 05:08:43;;;;;;;12.33;6.17;;;3.60;99.90;;;;;;5052368;28;20705;-75
2022/12/03 05:11:08;;;;;;;9.43;6.13;;;3.60;99.90;;;;;;5052339;28;20537;-75
2022/12/03 05:13:34;;;;;;;9.17;5.60;;;3.60;99.90;;;;;;5050764;28;20202;-75
2022/12/03 05:15:59;;;;;;;9.80;5.60;;;3.60;99.90;;;;;;5050085;28;20258;-75
2022/12/03 05:18:25;;;;;;;8.20;5.20;;;3.60;99.90;;;;;;5052188;28;20220;-75
2022/12/03 05:20:50;;;;;;;12.80;5.90;;;3.60;99.90;;;;;;5052117;28;20194;-75
2022/12/03 05:23:16;;;;;;;11.13;6.43;;;3.60;99.90;;;;;;5052098;28;20281;-75
2022/12/03 05:25:41;;;;;;;10.60;6.17;;;3.60;99.90;;;;;;5056227;28;20167;-77
2022/12/03 05:28:07;;;;;;;11.23;7.10;;;3.60;99.90;;;;;;5059422;28;20257;-77
2022/12/03 05:30:33;;;;;;;8.97;5.40;;;3.60;99.90;;;;;;5056241;28;20544;-76
2022/12/03 05:32:59;;;;;;;108.30;48.70;;;3.60;99.90;;;;;;5050541;28;20199;-77
2022/12/03 05:35:40;;;;;;;28.40;16.23;;;3.60;99.90;;;;;;5028921;28;20512;-76
2022/12/03 05:38:05;;;;;;;11.73;8.00;;;3.60;99.90;;;;;;5050815;28;20413;-76
2022/12/03 05:40:31;;;;;;;13.50;7.77;;;3.70;99.90;;;;;;5050606;28;20201;-76
2022/12/03 05:42:56;;;;;;;12.43;7.87;;;3.70;99.90;;;;;;5051819;28;20224;-76
2022/12/03 05:45:30;;;;;;;11.13;6.77;;;3.70;99.90;;;;;;5051505;28;20250;-76
2022/12/03 05:47:57;;;;;;;9.50;4.93;;;3.70;99.90;;;;;;5051919;28;20167;-77
2022/12/03 05:50:25;;;;;;;10.73;6.27;;;3.70;99.90;;;;;;5051756;28;20412;-76
2022/12/03 05:52:51;;;;;;;11.13;6.90;;;3.70;99.90;;;;;;5051943;28;20839;-77
2022/12/03 05:55:17;;;;;;;8.63;5.60;;;3.70;99.90;;;;;;5052183;28;20405;-75
2022/12/03 05:57:43;;;;;;;11.00;6.13;;;3.70;99.90;;;;;;5051748;28;20402;-75
2022/12/03 06:00:23;;;;;;;11.30;7.43;;;3.70;99.90;;;;;;5051700;28;20770;-75
2022/12/03 06:02:49;;;;;;;15.47;7.33;;;3.80;99.90;;;;;;5053910;28;20424;-77
2022/12/03 06:05:18;;;;;;;10.63;5.70;;;3.70;99.90;;;;;;5059065;28;20413;-77
2022/12/03 06:07:44;;;;;;;11.50;7.00;;;3.70;99.90;;;;;;5059799;28;20405;-77
2022/12/03 06:10:11;;;;;;;10.83;6.10;;;3.80;99.90;;;;;;5053971;28;20485;-75
2022/12/03 06:12:37;;;;;;;12.93;7.00;;;3.80;99.90;;;;;;5051207;28;20989;-77
2022/12/03 06:15:03;;;;;;;9.83;6.87;;;3.70;99.90;;;;;;5058603;28;20424;-77
2022/12/03 06:17:29;;;;;;;13.27;6.90;;;3.80;99.90;;;;;;5055866;28;20175;-77
2022/12/03 06:19:54;;;;;;;16.63;6.93;;;3.80;99.90;;;;;;5056915;28;20961;-77
2022/12/03 06:22:20;;;;;;;12.63;7.13;;;3.80;99.90;;;;;;5059434;28;20676;-77
2022/12/03 06:24:45;;;;;;;12.43;6.43;;;3.80;99.90;;;;;;5057913;28;20316;-77
2022/12/03 06:27:11;;;;;;;12.33;6.90;;;3.80;99.90;;;;;;5062322;28;20166;-77
2022/12/03 06:29:36;;;;;;;13.70;8.60;;;3.70;99.90;;;;;;5059426;28;20173;-75
2022/12/03 06:32:03;;;;;;;9.93;6.07;;;3.70;99.90;;;;;;5055165;28;20174;-76
2022/12/03 06:34:29;;;;;;;13.20;8.10;;;3.70;99.90;;;;;;5055090;28;20202;-75
2022/12/03 06:36:55;;;;;;;11.93;6.20;;;3.80;99.90;;;;;;5054017;28;20417;-76
2022/12/03 06:39:20;;;;;;;15.33;7.23;;;3.70;99.90;;;;;;5055102;28;20193;-75
2022/12/03 06:41:46;;;;;;;10.57;6.33;;;3.70;99.90;;;;;;5055177;28;20175;-75
2022/12/03 06:44:11;;;;;;;13.23;6.60;;;3.70;99.90;;;;;;5054944;28;20194;-75
2022/12/03 06:46:37;;;;;;;12.57;7.03;;;3.60;99.90;;;;;;5053755;28;20175;-75
2022/12/03 06:49:02;;;;;;;11.07;5.70;;;3.60;99.90;;;;;;5054990;28;20200;-75
2022/12/03 06:51:28;;;;;;;11.00;7.13;;;3.50;99.90;;;;;;5055010;28;20163;-75
2022/12/03 06:53:53;;;;;;;9.60;5.90;;;3.50;99.90;;;;;;5054860;28;20190;-75
2022/12/03 06:56:19;;;;;;;11.67;6.83;;;3.50;99.90;;;;;;5057814;28;20178;-78
2022/12/03 06:58:45;;;;;;;13.23;6.80;;;3.60;99.90;;;;;;5061186;28;20163;-78
2022/12/03 07:01:10;;;;;;;12.70;6.63;;;3.60;99.90;;;;;;5060709;28;20602;-78
2022/12/03 07:03:36;;;;;;;12.37;6.00;;;3.60;99.90;;;;;;5057819;28;20203;-76
2022/12/03 07:06:01;;;;;;;17.47;7.80;;;3.60;99.90;;;;;;5054418;28;20270;-76
2022/12/03 07:08:27;;;;;;;12.93;6.60;;;3.60;99.90;;;;;;5053405;28;20198;-75
2022/12/03 07:10:53;;;;;;;14.63;6.67;;;3.50;99.90;;;;;;5053387;28;20171;-75
2022/12/03 07:13:19;;;;;;;10.00;6.03;;;3.60;99.90;;;;;;5053389;28;20206;-77
2022/12/03 07:15:44;;;;;;;9.87;6.07;;;3.50;99.90;;;;;;5047463;28;20434;-75
2022/12/03 07:18:10;;;;;;;16.93;6.80;;;3.50;99.90;;;;;;5052853;28;20175;-76
2022/12/03 07:20:36;;;;;;;9.77;5.87;;;3.60;99.90;;;;;;5054499;28;20178;-77
2022/12/03 07:23:01;;;;;;;12.20;5.80;;;3.60;99.90;;;;;;5054451;28;20195;-76
2022/12/03 07:25:27;;;;;;;14.30;7.47;;;3.50;99.90;;;;;;5057037;28;20245;-75
2022/12/03 07:27:53;;;;;;;13.10;5.80;;;3.50;99.90;;;;;;5054383;28;20175;-77
2022/12/03 07:30:19;;;;;;;8.37;5.03;;;3.50;99.90;;;;;;5052916;28;20486;-77
2022/12/03 07:32:44;;;;;;;10.37;7.20;;;3.50;99.90;;;;;;5055564;28;20198;-77
2022/12/03 07:35:10;;;;;;;12.43;6.10;;;3.50;99.90;;;;;;5060467;28;20175;-75
2022/12/03 07:37:36;;;;;;;9.27;5.43;;;3.50;99.90;;;;;;5052172;28;20175;-76
2022/12/03 07:40:02;;;;;;;12.80;6.20;;;3.50;99.90;;;;;;5049802;28;20182;-76
2022/12/03 07:42:28;;;;;;;12.60;6.43;;;3.50;99.90;;;;;;5053905;28;20187;-77
2022/12/03 07:44:53;;;;;;;12.53;6.20;;;3.50;99.90;;;;;;5055907;28;20412;-76
2022/12/03 07:47:19;;;;;;;17.77;8.83;;;3.50;99.90;;;;;;5053865;28;20195;-77
2022/12/03 07:49:44;;;;;;;14.40;6.80;;;3.50;99.90;;;;;;5051543;28;20182;-76
2022/12/03 07:52:10;;;;;;;8.20;5.70;;;3.50;99.90;;;;;;5053893;28;20565;-76
2022/12/03 07:54:35;;;;;;;9.90;5.73;;;3.60;99.90;;;;;;5053485;28;20182;-76
2022/12/03 07:57:01;;;;;;;9.73;5.70;;;3.60;99.90;;;;;;5053799;28;20163;-76
2022/12/03 07:59:27;;;;;;;16.07;6.60;;;3.60;99.90;;;;;;5053709;28;20167;-76
2022/12/03 08:01:52;;;;;;;12.77;5.70;;;3.60;99.90;;;;;;5049448;28;20186;-75
2022/12/03 08:04:20;;;;;;;12.37;6.53;;;3.60;99.90;;;;;;5051112;28;20820;-75
2022/12/03 08:06:46;;;;;;;12.53;5.87;;;3.60;99.90;;;;;;5053555;28;20175;-76
2022/12/03 08:09:12;;;;;;;10.00;5.60;;;3.60;99.90;;;;;;5053551;28;20512;-76
2022/12/03 08:11:37;;;;;;;10.50;6.03;;;3.60;99.90;;;;;;5052213;28;20900;-75
2022/12/03 08:14:14;;;;;;;15.20;5.70;;;3.60;99.90;;;;;;5045575;28;20214;-75
2022/12/03 08:16:41;;;;;;;15.30;6.53;;;3.60;99.90;;;;;;5045451;28;20189;-75
2022/12/03 08:19:15;;;;;;;13.67;6.60;;;3.70;99.90;;;;;;5053331;28;20409;-75
2022/12/03 08:21:42;;;;;;;12.33;6.73;;;3.70;99.90;;;;;;5059442;28;20397;-77
2022/12/03 08:24:14;;;;;;;11.80;6.20;;;3.60;99.90;;;;;;5059861;28;20467;-77
2022/12/03 08:26:40;;;;;;;9.70;4.97;;;3.60;99.90;;;;;;5062307;28;20528;-78
2022/12/03 08:29:18;;;;;;;15.37;5.77;;;3.60;99.90;;;;;;5063438;28;20413;-77
2022/12/03 08:31:48;;;;;;;14.27;6.23;;;3.60;99.90;;;;;;5055604;28;20488;-77
2022/12/03 08:34:25;;;;;;;16.10;6.30;;;3.60;99.90;;;;;;5051775;28;20507;-77
2022/12/03 08:37:00;;;;;;;7.93;5.00;;;3.60;99.90;;;;;;5048952;28;20931;-77
2022/12/03 08:39:26;;;;;;;11.63;5.97;;;3.60;99.90;;;;;;5051162;28;20437;-77
2022/12/03 08:44:40;;;;;;;12.20;5.50;;;3.60;99.90;;;;;;5054617;28;20404;-75
2022/12/03 08:47:12;;;;;;;9.07;5.63;;;3.60;99.90;;;;;;5052089;28;20438;-77
2022/12/03 08:49:39;;;;;;;12.43;6.50;;;3.60;99.90;;;;;;5061285;28;20227;-77
2022/12/03 08:52:31;;;;;;;10.50;5.53;;;3.70;99.90;;;;;;5061285;28;20409;-75
2022/12/03 08:54:57;;;;;;;8.30;5.23;;;3.70;99.90;;;;;;5049510;28;20433;-76
2022/12/03 08:57:28;;;;;;;9.73;5.80;;;3.70;99.90;;;;;;5041842;28;20425;-76
2022/12/03 09:00:02;;;;;;;11.50;6.13;;;3.80;99.90;;;;;;5047791;28;20965;-77
2022/12/03 09:02:33;;;;;;;11.33;6.27;;;3.80;99.90;;;;;;5051672;28;20425;-77
2022/12/03 09:05:20;;;;;;;11.30;6.33;;;3.80;99.90;;;;;;5052733;28;20409;-77
2022/12/03 09:07:45;;;;;;;12.90;6.57;;;3.90;99.90;;;;;;5047648;28;20485;-77
2022/12/03 09:10:11;;;;;;;8.07;5.13;;;4.00;99.90;;;;;;5048058;28;20512;-75
2022/12/03 09:12:37;;;;;;;10.83;6.10;;;4.00;99.90;;;;;;5051987;28;20229;-75
2022/12/03 09:15:03;;;;;;;13.20;6.80;;;4.10;99.90;;;;;;5036835;28;20236;-75
2022/12/03 09:17:28;;;;;;;10.20;5.33;;;4.10;99.90;;;;;;5052268;28;20170;-75
2022/12/03 09:19:54;;;;;;;12.77;6.57;;;4.20;99.90;;;;;;5050909;28;20199;-75
2022/12/03 09:22:19;;;;;;;8.53;5.87;;;4.20;99.90;;;;;;5052378;28;20508;-75
2022/12/03 09:24:45;;;;;;;10.60;5.57;;;4.30;99.90;;;;;;5052588;28;20173;-77
2022/12/03 09:27:10;;;;;;;9.67;5.93;;;4.30;99.90;;;;;;5050760;28;20174;-76
2022/12/03 09:29:36;;;;;;;9.97;6.20;;;4.40;99.90;;;;;;5031521;28;20226;-76
2022/12/03 09:32:01;;;;;;;11.37;5.80;;;4.30;99.90;;;;;;5049621;28;20190;-75
2022/12/03 09:34:27;;;;;;;12.07;5.93;;;4.30;99.90;;;;;;5051858;28;20194;-75
2022/12/03 09:36:53;;;;;;;10.70;5.60;;;4.30;99.90;;;;;;5052266;28;20624;-76
2022/12/03 09:39:18;;;;;;;11.20;6.43;;;4.40;99.90;;;;;;5052022;28;20170;-76
2022/12/03 09:41:44;;;;;;;8.60;5.00;;;4.50;99.90;;;;;;5051973;28;20640;-76
2022/12/03 09:44:10;;;;;;;7.80;5.03;;;4.50;99.90;;;;;;5051753;28;20271;-76
2022/12/03 09:46:38;;;;;;;7.80;5.43;;;4.40;99.90;;;;;;5051679;28;20570;-76
2022/12/03 09:49:06;;;;;;;7.17;4.97;;;4.40;99.90;;;;;;5051152;28;20459;-77
2022/12/03 09:51:35;;;;;;;13.17;4.87;;;4.50;99.90;;;;;;5052342;28;20416;-77
2022/12/03 09:54:05;;;;;;;12.90;5.60;;;4.40;99.90;;;;;;5052616;28;20453;-76
2022/12/03 09:56:31;;;;;;;7.33;4.30;;;4.50;99.90;;;;;;5051122;28;20427;-77
2022/12/03 09:58:57;;;;;;;9.20;4.97;;;4.40;99.90;;;;;;5048677;28;20421;-76
2022/12/03 10:01:23;;;;;;;9.67;5.20;;;4.50;99.90;;;;;;5052395;28;20250;-75
2022/12/03 10:03:50;;;;;;;9.10;5.67;;;4.50;99.90;;;;;;5055971;28;20198;-77
2022/12/03 10:06:19;;;;;;;9.67;4.93;;;4.50;99.90;;;;;;5053188;28;20443;-77
2022/12/03 10:08:49;;;;;;;13.70;6.03;;;4.50;99.90;;;;;;5055207;28;20486;-76
2022/12/03 10:11:17;;;;;;;10.90;5.43;;;4.40;99.90;;;;;;5050173;28;20433;-76
2022/12/03 10:13:43;;;;;;;8.73;5.47;;;4.50;99.90;;;;;;5055424;28;20464;-75
2022/12/03 10:16:14;;;;;;;11.67;5.90;;;4.70;99.90;;;;;;5055422;28;20451;-75
2022/12/03 10:18:43;;;;;;;8.87;5.03;;;4.70;99.90;;;;;;5055617;28;20402;-75
2022/12/03 10:21:24;;;;;;;6.80;4.97;;;4.60;99.90;;;;;;5056443;28;20752;-76
2022/12/03 10:24:16;;;;;;;7.07;5.13;;;4.70;99.90;;;;;;5052048;28;20445;-77
2022/12/03 10:26:43;;;;;;;8.00;4.50;;;4.70;99.90;;;;;;5056145;28;20408;-77
2022/12/03 10:29:17;;;;;;;10.07;5.47;;;4.70;99.90;;;;;;5055928;28;20402;-77
2022/12/03 10:31:45;;;;;;;8.57;6.00;;;4.80;99.90;;;;;;5057294;28;20483;-78
2022/12/03 10:34:10;;;;;;;10.30;5.73;;;4.80;99.90;;;;;;5059937;28;20464;-78
2022/12/03 10:36:36;;;;;;;6.50;3.70;;;4.90;99.90;;;;;;5063284;28;20397;-77
2022/12/03 10:39:11;;;;;;;9.47;5.50;;;4.80;99.90;;;;;;5055642;28;20190;-78
2022/12/03 10:41:38;;;;;;;10.73;5.60;;;4.90;99.90;;;;;;5050776;28;20524;-77
2022/12/03 10:44:20;;;;;;;7.10;4.27;;;5.00;99.90;;;;;;5060079;28;20457;-77
2022/12/03 10:47:08;;;;;;;9.20;5.40;;;4.90;99.90;;;;;;5060942;28;20461;-78
2022/12/03 10:49:34;;;;;;;8.30;5.10;;;4.90;99.90;;;;;;5062043;28;20920;-78
2022/12/03 10:52:01;;;;;;;8.07;5.10;;;5.00;99.90;;;;;;5061615;28;20421;-77
2022/12/03 10:54:28;;;;;;;8.13;5.40;;;5.10;99.90;;;;;;5056026;28;20475;-75
2022/12/03 10:56:55;;;;;;;10.80;5.97;;;5.30;99.90;;;;;;5054758;28;20459;-75
2022/12/03 10:59:30;;;;;;;18.20;9.47;;;5.30;99.90;;;;;;5053557;28;20911;-75
2022/12/03 11:01:56;;;;;;;11.00;7.20;;;5.30;99.90;;;;;;5055857;28;20484;-77
2022/12/03 11:04:29;;;;;;;10.27;5.83;;;5.30;99.90;;;;;;5055705;28;20464;-77
2022/12/03 11:06:54;;;;;;;9.20;5.30;;;5.30;99.90;;;;;;5058615;28;20202;-77
2022/12/03 11:09:25;;;;;;;9.90;5.80;;;5.30;99.90;;;;;;5057511;28;20444;-77
2022/12/03 11:11:52;;;;;;;11.60;5.43;;;5.10;99.90;;;;;;5060953;28;20168;-77
2022/12/03 11:15:04;;;;;;;11.47;6.73;;;5.10;99.90;;;;;;5055876;28;20948;-76
2022/12/03 11:17:48;;;;;;;13.40;5.83;;;5.00;99.90;;;;;;5054613;28;20398;-75
2022/12/03 11:20:23;;;;;;;10.73;5.43;;;5.10;99.90;;;;;;5054538;28;20401;-77
2022/12/03 11:22:50;;;;;;;9.30;6.20;;;5.30;99.90;;;;;;5054654;28;20457;-77
2022/12/03 11:25:27;;;;;;;11.37;7.07;;;5.40;99.90;;;;;;5057334;28;20794;-78
2022/12/03 11:28:14;;;;;;;9.87;6.23;;;5.60;99.90;;;;;;5060643;28;20493;-77
2022/12/03 11:30:55;;;;;;;10.10;5.57;;;5.60;99.90;;;;;;5061690;28;20425;-78
2022/12/03 11:33:26;;;;;;;11.87;7.23;;;5.40;99.90;;;;;;5062755;28;20457;-77
2022/12/03 11:36:04;;;;;;;9.10;6.10;;;5.60;99.90;;;;;;5061620;28;20428;-77
2022/12/03 11:38:39;;;;;;;8.23;5.53;;;5.70;99.90;;;;;;5061100;28;20414;-77
2022/12/03 11:41:28;;;;;;;11.17;6.10;;;5.70;99.90;;;;;;5061861;28;20419;-77
2022/12/03 11:43:56;;;;;;;11.47;6.20;;;5.70;99.90;;;;;;5061926;28;20433;-77
2022/12/03 11:46:36;;;;;;;11.43;5.80;;;5.50;99.90;;;;;;5061588;28;20406;-77
2022/12/03 11:49:24;;;;;;;11.00;5.63;;;5.40;99.90;;;;;;5061681;28;20747;-77
2022/12/03 11:51:50;;;;;;;10.23;5.13;;;5.40;99.90;;;;;;5061333;28;20428;-78
2022/12/03 11:54:17;;;;;;;10.13;5.50;;;5.30;99.90;;;;;;5059880;28;20457;-77
2022/12/03 11:56:46;;;;;;;11.70;5.13;;;5.20;99.90;;;;;;5059246;28;20170;-77
2022/12/03 11:59:12;;;;;;;9.73;5.27;;;5.20;99.90;;;;;;5060907;28;20410;-77
2022/12/03 12:01:40;;;;;;;11.83;6.37;;;5.30;99.90;;;;;;5061089;28;20453;-77
2022/12/03 12:04:07;;;;;;;9.80;5.83;;;5.40;99.90;;;;;;5059914;28;20441;-78
2022/12/03 12:06:40;;;;;;;11.83;5.90;;;5.30;99.90;;;;;;5061225;28;20409;-77
2022/12/03 12:09:06;;;;;;;7.53;4.90;;;5.40;99.90;;;;;;5059787;28;21108;-77
2022/12/03 12:11:38;;;;;;;7.60;5.13;;;5.30;99.90;;;;;;5059666;28;20415;-77
2022/12/03 12:14:11;;;;;;;10.00;5.60;;;5.30;99.90;;;;;;5058928;28;20199;-77
2022/12/03 12:16:50;;;;;;;8.73;6.13;;;5.30;99.90;;;;;;5061140;28;20402;-77
2022/12/03 12:19:31;;;;;;;11.00;4.87;;;5.40;99.90;;;;;;5061293;28;20399;-77
2022/12/03 12:22:25;;;;;;;12.60;6.50;;;5.50;99.90;;;;;;5059956;28;20402;-78
2022/12/03 12:25:02;;;;;;;10.80;6.40;;;5.50;99.90;;;;;;5059900;28;20409;-77
2022/12/03 12:27:34;;;;;;;12.80;6.63;;;5.50;99.90;;;;;;5059419;28;20451;-77
2022/12/03 12:30:12;;;;;;;21.80;10.93;;;5.40;99.90;;;;;;5059609;28;20452;-77
2022/12/03 12:33:13;;;;;;;27.73;13.47;;;5.50;99.90;;;;;;5060731;28;20520;-77
2022/12/03 12:35:40;;;;;;;14.23;7.10;;;5.50;99.90;;;;;;5059217;28;20413;-78
2022/12/03 12:38:05;;;;;;;12.07;6.57;;;5.50;99.90;;;;;;5059818;28;20451;-78
2022/12/03 12:40:33;;;;;;;12.67;6.77;;;5.30;99.90;;;;;;5061576;28;20402;-78
2022/12/03 12:43:07;;;;;;;15.60;7.87;;;5.30;99.90;;;;;;5060551;28;20199;-78
2022/12/03 12:45:34;;;;;;;9.57;6.20;;;5.30;99.90;;;;;;5060035;28;20476;-78
2022/12/03 12:48:18;;;;;;;11.13;7.67;;;5.30;99.90;;;;;;5060733;28;20500;-78
2022/12/03 12:50:46;;;;;;;14.40;6.20;;;5.40;99.90;;;;;;5060768;28;20479;-78
2022/12/03 12:53:31;;;;;;;14.50;6.50;;;5.40;99.90;;;;;;5058994;28;20456;-78
2022/12/03 12:55:58;;;;;;;15.10;7.30;;;5.30;99.90;;;;;;5060777;28;20402;-78
2022/12/03 12:58:27;;;;;;;12.20;6.87;;;5.40;99.90;;;;;;5060691;28;20406;-78
2022/12/03 13:00:54;;;;;;;12.13;6.93;;;5.40;99.90;;;;;;5059365;28;20406;-78
2022/12/03 13:03:24;;;;;;;15.10;8.70;;;5.20;99.90;;;;;;5058867;28;20433;-78
2022/12/03 13:05:52;;;;;;;9.27;5.93;;;5.20;99.90;;;;;;5060375;28;20420;-78
2022/12/03 13:08:19;;;;;;;13.10;6.70;;;5.20;99.90;;;;;;5061280;28;20424;-78
2022/12/03 13:10:45;;;;;;;11.87;6.17;;;5.20;99.90;;;;;;5059764;28;20511;-78
2022/12/03 13:13:21;;;;;;;9.23;5.37;;;5.10;99.90;;;;;;5059938;28;20451;-78
2022/12/03 13:16:06;;;;;;;10.77;7.47;;;5.00;99.90;;;;;;5059383;28;20410;-78
2022/12/03 13:18:42;;;;;;;18.07;7.70;;;5.00;99.90;;;;;;5059741;28;20495;-78
2022/12/03 13:21:19;;;;;;;10.83;6.83;;;5.00;99.90;;;;;;5059206;28;20727;-78
2022/12/03 13:23:45;;;;;;;11.23;5.73;;;5.00;99.90;;;;;;5058451;28;20440;-78